Time;durP1;ratioP1;P1;durP2;ratioP2;P2;SDS_P1;SDS_P2;PMS_P1;PMS_P2;Temp;Humidity;BMP_temperature;BMP_pressure;BME280_temperature;BME280_humidity;BME280_pressure;Samples;Min_cycle;Max_cycle;Signal;HPM_P1;HPM_P2
2022/07/10 00:01:11;;;;;;;;;1.25;1.00;;;;;19.10;49.90;101845.88;5061619;28;45572;-79
2022/07/10 00:03:37;;;;;;;;;1.50;1.00;;;;;19.09;49.99;101848.59;5056216;28;46123;-80
2022/07/10 00:06:02;;;;;;;;;0.75;0.75;;;;;18.80;50.43;101813.84;5071497;28;45469;-80
2022/07/10 00:08:28;;;;;;;;;0.00;0.00;;;;;18.90;50.59;101838.50;5084002;27;45387;-79
2022/07/10 00:10:53;;;;;;;;;1.50;0.00;;;;;18.88;50.49;101837.69;5072333;27;45250;-80
2022/07/10 00:13:18;;;;;;;;;2.50;1.00;;;;;18.85;50.50;101852.97;5074680;28;45328;-80
2022/07/10 00:15:44;;;;;;;;;1.00;1.00;;;;;18.64;50.79;101817.97;5069391;28;45445;-80
2022/07/10 00:18:09;;;;;;;;;1.00;1.00;;;;;18.70;51.13;101822.25;5062277;28;45542;-78
2022/07/10 00:20:35;;;;;;;;;1.00;1.00;;;;;18.70;51.29;101835.63;5057680;28;45446;-78
2022/07/10 00:23:00;;;;;;;;;1.00;0.00;;;;;18.53;51.20;101815.66;5071297;28;46166;-80
2022/07/10 00:25:26;;;;;;;;;0.75;0.75;;;;;18.70;51.29;101847.19;5059830;27;45448;-79
2022/07/10 00:27:51;;;;;;;;;0.50;0.50;;;;;18.76;51.27;101859.53;5056817;28;45502;-79
2022/07/10 00:30:17;;;;;;;;;1.00;1.00;;;;;18.67;51.56;101859.84;5052427;28;45537;-81
2022/07/10 00:32:42;;;;;;;;;0.00;0.00;;;;;18.71;51.50;101858.81;5061413;27;45527;-80
2022/07/10 00:35:08;;;;;;;;;2.00;1.50;;;;;18.63;51.67;101851.03;5075852;28;45547;-79
2022/07/10 00:37:33;;;;;;;;;1.00;1.00;;;;;18.59;51.89;101855.59;5065281;27;45604;-79
2022/07/10 00:39:59;;;;;;;;;1.25;1.00;;;;;18.46;52.19;101849.78;5067034;28;45495;-79
2022/07/10 00:42:25;;;;;;;;;3.00;1.50;;;;;18.49;52.68;101853.28;5073628;27;46593;-80
2022/07/10 00:44:51;;;;;;;;;0.75;0.75;;;;;18.40;52.55;101847.31;5060868;28;45552;-79
2022/07/10 00:47:19;;;;;;;;;2.25;1.75;;;;;18.37;52.88;101851.88;5064263;27;45308;-79
2022/07/10 00:49:45;;;;;;;;;0.00;0.00;;;;;18.37;53.11;101851.88;5090050;27;45676;-80
2022/07/10 00:52:13;;;;;;;;;5.00;2.50;;;;;18.31;53.21;101850.31;5074919;27;45541;-80
2022/07/10 00:54:42;;;;;;;;;2.25;0.50;;;;;18.22;53.46;101842.53;5073265;27;45414;-80
2022/07/10 00:57:08;;;;;;;;;5.00;1.50;;;;;18.26;53.46;101831.69;5059222;28;45458;-78
2022/07/10 00:59:34;;;;;;;;;5.00;1.00;;;;;18.11;53.88;101830.41;5069890;28;45613;-79
2022/07/10 01:02:01;;;;;;;;;2.00;2.00;;;;;18.11;53.89;101827.72;5071880;28;45777;-79
2022/07/10 01:04:26;;;;;;;;;1.00;1.00;;;;;18.11;53.87;101821.47;5062595;28;45385;-77
2022/07/10 01:06:52;;;;;;;;;2.00;1.75;;;;;18.02;54.40;101827.13;5058431;28;45517;-79
2022/07/10 01:09:18;;;;;;;;;1.25;1.25;;;;;17.93;54.58;101818.47;5062999;28;45415;-80
2022/07/10 01:11:43;;;;;;;;;0.75;0.75;;;;;18.06;54.51;101837.69;5069100;27;45650;-80
2022/07/10 01:14:10;;;;;;;;;1.00;1.00;;;;;17.87;54.71;101826.66;5069767;28;45517;-79
2022/07/10 01:16:35;;;;;;;;;2.00;2.00;;;;;17.99;54.69;101845.94;5062906;27;45367;-79
2022/07/10 01:19:00;;;;;;;;;3.00;1.00;;;;;17.81;54.83;101825.97;5072642;28;45517;-78
2022/07/10 01:21:31;;;;;;;;;1.00;1.00;;;;;17.87;55.24;101837.38;5069063;28;46353;-80
2022/07/10 01:23:57;;;;;;;;;1.25;1.25;;;;;17.90;54.85;101850.66;5061191;28;45494;-79
2022/07/10 01:26:23;;;;;;;;;1.25;1.25;;;;;17.77;55.06;101827.88;5064651;28;45470;-80
2022/07/10 01:28:53;;;;;;;;;1.50;1.50;;;;;17.89;55.30;101842.69;5066289;27;45559;-80
2022/07/10 01:31:23;;;;;;;;;0.75;0.75;;;;;17.81;55.13;101842.00;5057927;28;46686;-81
2022/07/10 01:33:49;;;;;;;;;1.75;1.75;;;;;17.86;55.22;101850.78;5066398;28;45427;-78
2022/07/10 01:36:15;;;;;;;;;2.00;2.00;;;;;17.87;55.32;101857.84;5055317;28;45370;-79
2022/07/10 01:38:41;;;;;;;;;1.00;1.00;;;;;17.81;55.07;101842.91;5071931;28;45235;-80
2022/07/10 01:41:08;;;;;;;;;2.00;2.00;;;;;17.76;55.38;101839.47;5064447;27;45650;-80
2022/07/10 01:43:34;;;;;;;;;0.00;0.00;;;;;17.66;55.96;101832.63;5073994;28;45473;-80
2022/07/10 01:46:00;;;;;;;;;1.50;1.50;;;;;17.66;55.68;101844.22;5062917;27;45434;-81
2022/07/10 01:48:28;;;;;;;;;1.00;1.00;;;;;17.60;56.02;101836.41;5067682;28;45366;-79
2022/07/10 01:50:54;;;;;;;;;5.00;2.00;;;;;17.61;55.95;101845.28;5076964;28;47141;-80
2022/07/10 01:53:19;;;;;;;;;1.75;1.75;;;;;17.56;56.00;101832.91;5058809;27;45430;-80
2022/07/10 01:55:44;;;;;;;;;2.00;2.00;;;;;17.60;56.11;101844.41;5070112;28;45572;-80
2022/07/10 01:58:10;;;;;;;;;1.00;1.00;;;;;17.56;56.16;101834.72;5077287;27;45542;-80
2022/07/10 02:00:35;;;;;;;;;1.00;1.00;;;;;17.47;56.21;101832.31;5102368;27;46255;-81
2022/07/10 02:05:44;;;;;;;;;0.25;0.25;;;;;17.53;56.22;101842.84;5073172;28;44862;-79
2022/07/10 02:08:10;;;;;;;;;1.00;1.00;;;;;17.44;55.96;101837.75;5074772;28;44939;-81
2022/07/10 02:10:35;;;;;;;;;0.00;0.00;;;;;17.45;55.96;101832.38;5072886;28;47960;-81
2022/07/10 02:13:00;;;;;;;;;1.50;1.50;;;;;17.52;55.59;101847.31;5076893;28;45573;-80
2022/07/10 02:15:26;;;;;;;;;0.50;0.50;;;;;17.40;55.82;101836.97;5074548;28;53882;-81
2022/07/10 02:17:51;;;;;;;;;1.00;1.00;;;;;17.30;56.03;101838.16;5060344;28;45385;-81
2022/07/10 02:20:17;;;;;;;;;1.00;1.00;;;;;17.27;56.05;101836.44;5068160;28;45552;-80
2022/07/10 02:22:42;;;;;;;;;2.00;2.00;;;;;17.39;55.73;101853.91;5078069;27;45432;-80
2022/07/10 02:25:08;;;;;;;;;1.25;1.25;;;;;17.30;55.52;101851.50;5074620;27;45222;-81
2022/07/10 02:27:34;;;;;;;;;2.00;1.00;;;;;17.18;55.67;101839.38;5077184;28;45601;-79
2022/07/10 02:29:59;;;;;;;;;4.00;2.50;;;;;16.97;56.00;101798.97;5074173;28;46516;-78
2022/07/10 02:32:25;;;;;;;;;1.00;1.00;;;;;17.12;56.18;101843.06;5074999;28;45490;-79
2022/07/10 02:34:50;;;;;;;;;2.25;2.00;;;;;17.03;56.40;101833.50;5067137;28;45684;-78
2022/07/10 02:37:15;;;;;;;;;2.00;1.25;;;;;17.07;56.37;101828.13;5055910;28;45417;-77
2022/07/10 02:39:41;;;;;;;;;1.25;1.25;;;;;17.04;55.82;101815.72;5068587;28;46756;-78
2022/07/10 02:42:06;;;;;;;;;1.75;1.75;;;;;17.00;56.25;101814.91;5068271;28;45361;-79
2022/07/10 02:44:32;;;;;;;;;0.50;0.25;;;;;17.13;56.24;101833.28;5077464;27;45304;-79
2022/07/10 02:46:57;;;;;;;;;0.75;0.75;;;;;17.16;56.33;101828.72;5066473;27;45678;-79
2022/07/10 02:49:23;;;;;;;;;2.00;1.00;;;;;17.08;56.01;101809.38;5065387;28;45796;-79
2022/07/10 02:51:48;;;;;;;;;2.00;2.00;;;;;17.12;55.95;101810.16;5070715;28;45634;-77
2022/07/10 02:54:13;;;;;;;;;1.00;1.00;;;;;17.20;56.34;101822.38;5068101;28;45565;-79
2022/07/10 02:56:39;;;;;;;;;4.50;2.00;;;;;17.18;55.91;101804.63;5072202;28;45509;-77
2022/07/10 02:59:06;;;;;;;;;4.50;1.50;;;;;17.18;56.00;101809.97;5069209;27;46054;-79
2022/07/10 03:01:31;;;;;;;;;1.75;1.75;;;;;17.04;56.47;101797.03;5068059;28;45537;-80
2022/07/10 03:03:57;;;;;;;;;1.50;1.50;;;;;17.04;56.46;101807.69;5066807;27;45477;-79
2022/07/10 03:06:23;;;;;;;;;5.00;1.75;;;;;17.00;56.41;101817.56;5070778;27;45337;-77
2022/07/10 03:08:48;;;;;;;;;1.75;0.25;;;;;16.75;56.81;101785.31;5068040;27;45547;-77
2022/07/10 03:11:14;;;;;;;;;1.00;1.00;;;;;17.00;56.96;101824.72;5046221;28;45371;-81
2022/07/10 03:13:40;;;;;;;;;1.00;1.00;;;;;16.65;57.33;101775.78;5068510;27;45426;-80
2022/07/10 03:16:05;;;;;;;;;2.00;2.00;;;;;16.90;57.12;101825.88;5046069;28;45336;-80
2022/07/10 03:18:30;;;;;;;;;3.00;1.00;;;;;16.69;57.19;101801.47;5057592;28;45433;-78
2022/07/10 03:20:56;;;;;;;;;2.25;1.00;;;;;16.73;57.50;101813.81;5058166;28;45373;-82
2022/07/10 03:23:21;;;;;;;;;5.50;2.00;;;;;16.74;57.60;101804.03;5065085;28;45432;-80
2022/07/10 03:25:46;;;;;;;;;1.00;1.00;;;;;16.78;57.65;101816.38;5064755;28;45502;-80
2022/07/10 03:28:12;;;;;;;;;2.00;2.00;;;;;16.61;57.52;101792.78;5055629;28;45439;-79
2022/07/10 03:30:37;;;;;;;;;2.00;2.00;;;;;16.79;57.59;101812.78;5055499;28;45394;-79
2022/07/10 03:33:03;;;;;;;;;2.25;2.25;;;;;16.78;57.58;101811.06;5055984;28;45530;-79
2022/07/10 03:35:31;;;;;;;;;2.00;2.00;;;;;16.85;57.15;101824.19;5077191;27;45532;-78
2022/07/10 03:37:56;;;;;;;;;2.00;1.75;;;;;16.79;57.65;101807.44;5067583;28;45372;-79
2022/07/10 03:40:22;;;;;;;;;1.75;1.75;;;;;16.74;57.94;101820.91;5062122;28;45459;-79
2022/07/10 03:42:47;;;;;;;;;1.00;1.00;;;;;16.64;58.29;101819.38;5075718;28;45455;-79
2022/07/10 03:45:12;;;;;;;;;1.50;1.50;;;;;16.68;58.04;101826.41;5055135;28;45405;-79
2022/07/10 03:47:38;;;;;;;;;2.00;2.00;;;;;16.66;58.07;101817.56;5064889;28;47369;-78
2022/07/10 03:50:04;;;;;;;;;1.50;1.50;;;;;16.67;58.16;101808.63;5076106;27;45541;-79
2022/07/10 03:52:29;;;;;;;;;0.50;0.50;;;;;16.67;58.30;101814.88;5078349;27;45438;-78
2022/07/10 03:54:55;;;;;;;;;2.00;2.00;;;;;16.65;58.25;101799.81;5058751;27;45497;-78
2022/07/10 04:00:04;;;;;;;;;5.00;2.00;;;;;16.64;58.20;101814.94;5086507;28;45359;-80
2022/07/10 04:02:30;;;;;;;;;4.75;2.50;;;;;16.57;58.12;101797.34;5096177;27;45517;-79
2022/07/10 04:04:55;;;;;;;;;2.50;2.50;;;;;16.59;58.22;101807.97;5059762;28;45535;-79
2022/07/10 04:07:20;;;;;;;;;1.25;1.25;;;;;16.54;58.26;101797.41;5106446;27;45438;-79
2022/07/10 04:09:46;;;;;;;;;1.00;1.00;;;;;16.69;58.23;101806.81;5074793;27;45481;-77
2022/07/10 04:12:11;;;;;;;;;2.00;2.00;;;;;16.62;58.32;101794.53;5061163;27;45472;-78
2022/07/10 04:14:36;;;;;;;;;2.00;1.75;;;;;16.65;58.06;101798.00;5067640;28;45406;-78
2022/07/10 04:17:02;;;;;;;;;1.00;1.00;;;;;16.75;58.23;101811.13;5075873;28;46216;-78
2022/07/10 04:19:27;;;;;;;;;2.00;2.00;;;;;16.72;57.91;101806.75;5068685;28;45545;-77
2022/07/10 04:21:52;;;;;;;;;1.00;1.00;;;;;17.02;57.32;101812.19;5057701;28;45335;-80
2022/07/10 04:24:18;;;;;;;;;3.00;1.50;;;;;17.50;56.42;101818.88;5055609;28;45437;-78
2022/07/10 04:26:44;;;;;;;;;3.50;2.00;;;;;17.73;55.25;101791.44;5054635;28;46269;-79
2022/07/10 04:29:09;;;;;;;;;1.00;1.00;;;;;18.18;54.28;101800.78;5055211;28;45411;-79
2022/07/10 04:31:35;;;;;;;;;2.25;2.25;;;;;18.61;53.19;101815.38;5071193;28;45872;-79
2022/07/10 04:34:00;;;;;;;;;3.00;1.25;;;;;18.98;51.86;101796.28;5056719;28;45462;-78
2022/07/10 04:36:26;;;;;;;;;5.00;1.75;;;;;19.45;50.93;101805.28;5062864;28;46349;-78
2022/07/10 04:38:51;;;;;;;;;1.00;1.00;;;;;19.84;49.93;101807.38;5054315;28;45449;-78
2022/07/10 04:41:17;;;;;;;;;2.50;2.00;;;;;20.17;49.23;101815.03;5065271;28;45358;-77
2022/07/10 04:43:42;;;;;;;;;2.50;1.00;;;;;20.52;48.35;101812.69;5054087;28;45433;-80
2022/07/10 04:46:07;;;;;;;;;3.00;3.00;;;;;20.94;47.36;101812.66;5057741;28;45320;-80
2022/07/10 04:48:33;;;;;;;;;2.00;1.00;;;;;21.33;46.36;101800.19;5054859;28;45488;-81
2022/07/10 04:50:59;;;;;;;;;3.00;3.00;;;;;21.58;45.12;101791.03;5058094;28;45400;-81
2022/07/10 04:53:25;;;;;;;;;3.50;2.00;;;;;21.81;44.66;101782.72;5074303;28;45420;-80
2022/07/10 04:55:50;;;;;;;;;1.25;1.00;;;;;22.50;43.39;101810.78;5064873;27;45433;-80
2022/07/10 04:58:15;;;;;;;;;1.50;1.00;;;;;22.78;42.62;101806.66;5054669;28;45419;-80
2022/07/10 05:00:41;;;;;;;;;2.00;2.00;;;;;22.84;42.07;101790.16;5072949;27;45372;-80
2022/07/10 05:03:06;;;;;;;;;2.00;2.00;;;;;23.13;41.14;101785.06;5074815;27;45539;-79
2022/07/10 05:05:31;;;;;;;;;3.50;3.50;;;;;23.51;41.16;101792.88;5069782;27;45455;-80
2022/07/10 05:07:58;;;;;;;;;1.00;1.00;;;;;24.01;40.02;101795.56;5056963;28;45438;-79
2022/07/10 05:10:23;;;;;;;;;2.00;2.00;;;;;24.19;38.94;101797.19;5059963;28;45547;-80
2022/07/10 05:12:48;;;;;;;;;2.00;2.00;;;;;24.71;38.67;101797.78;5054082;28;45366;-79
2022/07/10 05:15:14;;;;;;;;;2.75;2.00;;;;;25.12;38.05;101795.22;5066258;28;45524;-80
2022/07/10 05:17:39;;;;;;;;;2.25;1.00;;;;;25.63;37.50;101801.97;5074952;28;45435;-80
2022/07/10 05:20:05;;;;;;;;;1.25;1.25;;;;;25.79;37.16;101791.03;5064383;28;45315;-79
2022/07/10 05:22:30;;;;;;;;;1.00;0.75;;;;;26.09;35.80;101787.31;5056764;28;45429;-80
2022/07/10 05:24:56;;;;;;;;;2.50;1.00;;;;;26.33;36.15;101791.06;5063412;27;46009;-79
2022/07/10 05:27:21;;;;;;;;;0.00;0.00;;;;;26.63;34.68;101806.19;5054499;28;45494;-80
2022/07/10 05:29:47;;;;;;;;;2.00;2.00;;;;;26.88;34.70;101802.69;5056455;28;45452;-80
2022/07/10 05:32:13;;;;;;;;;1.00;1.00;;;;;26.67;35.00;101785.22;5064484;27;45396;-80
2022/07/10 05:34:38;;;;;;;;;1.75;1.75;;;;;26.83;33.89;101794.03;5061812;28;46182;-79
2022/07/10 05:37:04;;;;;;;;;0.50;0.50;;;;;26.84;33.98;101774.03;5058075;27;45499;-79
2022/07/10 05:39:30;;;;;;;;;1.00;1.00;;;;;27.06;33.67;101786.97;5053717;28;45565;-80
2022/07/10 05:41:57;;;;;;;;;0.75;0.75;;;;;27.20;33.59;101796.84;5072231;28;45578;-79
2022/07/10 05:44:23;;;;;;;;;1.00;1.00;;;;;27.43;33.10;101797.06;5064398;27;45742;-79
2022/07/10 05:46:48;;;;;;;;;2.00;2.00;;;;;27.68;32.93;101792.53;5064869;27;45336;-77
2022/07/10 05:49:13;;;;;;;;;1.50;1.50;;;;;27.82;32.59;101809.56;5053793;28;45440;-79
2022/07/10 05:51:39;;;;;;;;;1.00;1.00;;;;;27.94;32.07;101798.78;5072568;28;45582;-79
2022/07/10 05:54:04;;;;;;;;;1.00;1.00;;;;;28.28;31.49;101799.81;5078300;28;47080;-79
2022/07/10 05:56:30;;;;;;;;;1.00;1.00;;;;;28.31;31.99;101810.47;5088251;28;45469;-80
2022/07/10 05:58:56;;;;;;;;;1.00;1.00;;;;;28.54;30.88;101789.69;5073447;27;45456;-80
2022/07/10 06:01:22;;;;;;;;;2.00;1.00;;;;;28.68;31.07;101802.25;5056065;28;45419;-80
2022/07/10 06:03:48;;;;;;;;;1.75;1.00;;;;;28.97;30.79;101806.38;5070821;28;46372;-80
2022/07/10 06:06:15;;;;;;;;;1.00;1.00;;;;;29.11;30.52;101800.72;5049476;28;45388;-80
2022/07/10 06:08:44;;;;;;;;;0.00;0.00;;;;;29.20;30.07;101816.34;5040444;28;45504;-81
2022/07/10 06:11:10;;;;;;;;;2.75;1.25;;;;;29.01;29.84;101796.97;5064830;27;45405;-81
2022/07/10 06:13:35;;;;;;;;;1.25;1.00;;;;;28.24;30.80;101786.59;5053670;28;46090;-81
2022/07/10 06:16:01;;;;;;;;;1.50;1.50;;;;;28.35;31.60;101816.56;5053783;28;45454;-80
2022/07/10 06:18:26;;;;;;;;;2.25;1.00;;;;;28.95;30.24;101805.63;5055822;28;45731;-81
2022/07/10 06:20:52;;;;;;;;;1.25;1.00;;;;;29.39;29.40;101795.78;5073651;27;45705;-82
2022/07/10 06:23:17;;;;;;;;;1.75;1.00;;;;;29.76;29.58;101806.41;5067463;28;46347;-80
2022/07/10 06:25:42;;;;;;;;;1.00;1.00;;;;;29.57;29.20;101787.97;5070817;28;45461;-80
2022/07/10 06:28:08;;;;;;;;;1.25;1.25;;;;;29.49;29.23;101791.34;5062261;27;45354;-80
2022/07/10 06:30:33;;;;;;;;;1.00;1.00;;;;;29.82;29.25;101796.88;5054588;28;45414;-81
2022/07/10 06:32:58;;;;;;;;;2.00;2.00;;;;;30.15;28.48;101785.00;5056385;28;45482;-81
2022/07/10 06:35:24;;;;;;;;;1.00;1.00;;;;;29.88;28.50;101799.97;5062689;28;45507;-80
2022/07/10 06:37:49;;;;;;;;;1.00;1.00;;;;;30.20;28.88;101788.22;5063429;27;45456;-81
2022/07/10 06:40:15;;;;;;;;;3.00;1.00;;;;;30.58;28.01;101785.94;5067307;28;45509;-81
2022/07/10 06:42:41;;;;;;;;;2.25;1.00;;;;;30.71;27.48;101799.41;5075037;27;45722;-80
2022/07/10 06:45:07;;;;;;;;;2.00;2.00;;;;;30.59;27.31;101795.88;5076675;27;45541;-80
2022/07/10 06:48:05;;;;;;;;;1.00;1.00;;;;;30.70;27.22;101786.75;5059118;28;45588;-79
2022/07/10 06:50:31;;;;;;;;;1.50;1.00;;;;;30.33;27.33;101796.22;5054255;28;45616;-80
2022/07/10 06:52:57;;;;;;;;;2.00;1.00;;;;;30.56;27.22;101791.53;5060197;28;45477;-80
2022/07/10 06:55:23;;;;;;;;;1.25;1.25;;;;;30.23;27.23;101787.97;5058725;28;45489;-79
2022/07/10 06:57:48;;;;;;;;;0.50;0.50;;;;;30.33;27.80;101779.00;5068431;28;45357;-80
2022/07/10 07:00:15;;;;;;;;;2.25;0.75;;;;;30.98;27.36;101802.47;5063166;28;45442;-78
2022/07/10 07:02:40;;;;;;;;;1.00;1.00;;;;;30.88;26.91;101757.84;5056443;27;45412;-79
2022/07/10 07:05:07;;;;;;;;;0.75;0.00;;;;;31.34;26.26;101792.03;5055773;28;45670;-79
2022/07/10 07:07:33;;;;;;;;;1.00;1.00;;;;;31.29;26.13;101788.81;5056969;28;45365;-80
2022/07/10 07:09:58;;;;;;;;;1.00;1.00;;;;;31.30;25.68;101774.19;5065368;28;45447;-80
2022/07/10 07:12:23;;;;;;;;;0.00;0.00;;;;;31.41;25.45;101788.72;5076111;27;46118;-79
2022/07/10 07:14:49;;;;;;;;;0.00;0.00;;;;;31.44;26.29;101797.50;5061736;27;45372;-80
2022/07/10 07:17:21;;;;;;;;;0.00;0.00;;;;;31.25;25.74;101806.50;5065954;27;45397;-79
2022/07/10 07:25:14;;;;;;;;;1.00;1.00;;;;;30.91;25.58;101798.50;5073120;28;45395;-79
2022/07/10 07:27:40;;;;;;;;;1.00;1.00;;;;;30.92;26.08;101785.75;5055609;28;45371;-77
2022/07/10 07:30:08;;;;;;;;;2.00;2.00;;;;;31.26;25.66;101799.16;5072488;28;45520;-79
2022/07/10 07:32:34;;;;;;;;;2.00;2.00;;;;;31.58;25.19;101788.09;5067133;28;46137;-79
2022/07/10 07:35:00;;;;;;;;;1.00;1.00;;;;;31.82;25.08;101789.59;5060386;28;45463;-79
2022/07/10 07:37:40;;;;;;;;;1.25;0.50;;;;;31.97;24.56;101769.03;5067055;28;45312;-79
2022/07/10 07:40:08;;;;;;;;;0.25;0.00;;;;;31.94;24.63;101788.47;5066747;28;45526;-79
2022/07/10 07:42:35;;;;;;;;;1.00;1.00;;;;;32.08;24.88;101776.25;5066800;28;45542;-80
2022/07/10 07:45:00;;;;;;;;;1.00;0.50;;;;;32.48;24.26;101774.38;5062721;28;45424;-79
2022/07/10 07:47:26;;;;;;;;;0.00;0.00;;;;;32.17;24.52;101767.22;5058419;28;45468;-80
2022/07/10 07:49:52;;;;;;;;;0.00;0.00;;;;;31.99;23.48;101769.78;5058027;28;45407;-79
2022/07/10 07:52:17;;;;;;;;;1.00;0.50;;;;;31.97;24.59;101755.38;5079314;28;45378;-79
2022/07/10 07:54:43;;;;;;;;;1.50;0.00;;;;;32.24;24.11;101757.44;5077467;27;45334;-79
2022/07/10 07:57:08;;;;;;;;;1.50;1.50;;;;;32.24;23.97;101757.44;5076724;28;45454;-80
2022/07/10 07:59:34;;;;;;;;;0.50;0.50;;;;;32.44;24.14;101764.75;5066089;28;45356;-81
2022/07/10 08:02:00;;;;;;;;;1.00;1.00;;;;;32.58;24.17;101770.66;5055200;28;45584;-80
2022/07/10 08:04:25;;;;;;;;;2.00;0.00;;;;;32.70;23.95;101768.63;5056804;28;45376;-79
2022/07/10 08:06:52;;;;;;;;;0.75;0.75;;;;;32.73;23.30;101768.31;5066003;28;45511;-79
2022/07/10 08:09:20;;;;;;;;;1.00;1.00;;;;;32.63;23.39;101783.88;5054834;28;45543;-80
2022/07/10 08:11:46;;;;;;;;;1.50;1.00;;;;;32.63;22.90;101762.00;5054981;28;46756;-80
2022/07/10 08:14:12;;;;;;;;;0.75;0.75;;;;;32.95;23.67;101774.47;5054251;28;45485;-81
2022/07/10 08:16:38;;;;;;;;;0.25;0.25;;;;;32.65;23.13;101743.59;5055394;28;45394;-80
2022/07/10 08:19:04;;;;;;;;;0.00;0.00;;;;;32.31;23.45;101759.59;5055015;28;45466;-80
2022/07/10 08:21:30;;;;;;;;;0.00;0.00;;;;;32.60;22.70;101756.81;5054574;28;46252;-80
2022/07/10 08:23:55;;;;;;;;;1.00;1.00;;;;;32.70;22.73;101762.28;5056515;28;45538;-79
2022/07/10 08:26:21;;;;;;;;;2.00;1.00;;;;;32.88;23.34;101749.56;5060818;28;45528;-78
2022/07/10 08:28:46;;;;;;;;;0.00;0.00;;;;;32.95;23.41;101749.84;5055728;28;45363;-80
2022/07/10 08:31:11;;;;;;;;;0.75;0.75;;;;;33.11;22.54;101761.00;5057867;28;46009;-80
2022/07/10 08:33:37;;;;;;;;;1.00;0.25;;;;;33.03;22.00;101730.78;5054129;28;45522;-78
2022/07/10 08:36:04;;;;;;;;;2.00;0.00;;;;;33.04;22.20;101759.91;5062683;28;45513;-80
2022/07/10 08:38:29;;;;;;;;;0.25;0.25;;;;;33.09;22.09;101757.56;5063498;28;45864;-80
2022/07/10 08:40:58;;;;;;;;;1.00;1.00;;;;;32.89;22.14;101755.91;5070251;28;45763;-80
2022/07/10 08:43:24;;;;;;;;;3.00;1.50;;;;;32.87;22.46;101736.03;5074327;27;45366;-79
2022/07/10 08:45:53;;;;;;;;;1.00;1.00;;;;;32.99;23.29;101747.66;5064811;28;45535;-80
2022/07/10 08:48:23;;;;;;;;;0.50;0.50;;;;;33.40;22.18;101740.84;5055560;27;45533;-80
2022/07/10 08:50:52;;;;;;;;;0.00;0.00;;;;;33.54;21.78;101738.63;5053676;28;45380;-80
2022/07/10 08:53:24;;;;;;;;;1.50;1.00;;;;;33.42;22.12;101751.66;5064083;27;45520;-79
2022/07/10 08:55:49;;;;;;;;;0.25;0.25;;;;;33.20;21.61;101733.78;5075672;28;45402;-80
2022/07/10 08:58:15;;;;;;;;;0.00;0.00;;;;;33.27;21.35;101762.28;5076558;27;45446;-79
2022/07/10 09:00:40;;;;;;;;;0.00;0.00;;;;;32.80;21.86;101744.00;5069382;27;45455;-80
2022/07/10 09:03:08;;;;;;;;;1.00;0.00;;;;;32.44;22.15;101729.22;5063620;27;45537;-79
2022/07/10 09:05:35;;;;;;;;;1.00;1.00;;;;;31.60;22.97;101712.34;5056253;28;45544;-79
2022/07/10 09:08:00;;;;;;;;;1.00;1.00;;;;;31.42;22.59;101722.22;5071941;27;45452;-80
2022/07/10 09:10:27;;;;;;;;;1.50;1.00;;;;;31.40;23.74;101724.19;5057207;28;45453;-79
2022/07/10 09:12:56;;;;;;;;;1.00;1.00;;;;;31.66;24.03;101730.06;5054487;28;45533;-81
2022/07/10 09:15:32;;;;;;;;;0.25;0.00;;;;;31.60;23.44;101717.81;5054293;28;45436;-80
2022/07/10 09:18:08;;;;;;;;;3.50;3.50;;;;;32.05;23.03;101725.47;5037752;28;45450;-81
2022/07/10 09:20:35;;;;;;;;;0.50;0.50;;;;;31.60;23.06;101726.00;5061749;28;46350;-81
2022/07/10 09:23:17;;;;;;;;;0.00;0.00;;;;;31.88;24.00;101717.97;5066385;27;45556;-80
2022/07/10 09:25:44;;;;;;;;;2.00;1.00;;;;;32.24;23.17;101723.75;5068422;27;45484;-80
2022/07/10 09:28:09;;;;;;;;;0.00;0.00;;;;;32.50;22.77;101718.53;5069870;28;45413;-80
2022/07/10 09:30:37;;;;;;;;;1.00;1.00;;;;;32.35;22.53;101709.91;5063565;28;45506;-80
2022/07/10 09:33:22;;;;;;;;;0.25;0.25;;;;;32.49;22.92;101724.16;5067506;28;45541;-80
2022/07/10 09:38:43;;;;;;;;;1.25;1.25;;;;;32.30;22.49;101716.84;5055468;28;45531;-80
2022/07/10 09:41:14;;;;;;;;;0.00;0.00;;;;;32.14;22.34;101711.97;5033869;28;45396;-81
2022/07/10 09:44:01;;;;;;;;;0.75;0.75;;;;;32.28;22.96;101719.75;5053441;28;45595;-80
2022/07/10 09:46:41;;;;;;;;;1.00;1.00;;;;;32.13;23.37;101726.63;5055296;28;45390;-80
2022/07/10 09:49:14;;;;;;;;;1.00;0.00;;;;;32.16;22.63;101708.09;5076846;28;45510;-80
2022/07/10 09:51:46;;;;;;;;;2.00;1.00;;;;;32.27;22.88;101722.63;5069141;28;45439;-81
2022/07/10 09:54:12;;;;;;;;;0.75;0.75;;;;;32.03;22.76;101724.75;5060584;27;45224;-80
2022/07/10 09:56:46;;;;;;;;;1.00;0.50;;;;;31.68;22.83;101697.97;5066793;28;45526;-80
2022/07/10 09:59:14;;;;;;;;;1.00;1.00;;;;;31.32;23.31;101719.44;5062665;28;45482;-80
2022/07/10 10:01:43;;;;;;;;;1.00;1.00;;;;;31.50;23.20;101720.47;5054266;28;45541;-80
2022/07/10 10:04:10;;;;;;;;;0.50;0.50;;;;;31.56;23.33;101708.16;5059274;28;45402;-79
2022/07/10 10:06:37;;;;;;;;;1.00;1.00;;;;;31.70;23.79;101699.56;5063324;28;45399;-79
2022/07/10 10:09:18;;;;;;;;;1.00;1.00;;;;;32.15;23.44;101702.78;5061948;28;45534;-80
2022/07/10 10:11:45;;;;;;;;;1.25;0.25;;;;;32.58;23.22;101704.13;5057914;27;45443;-80
2022/07/10 10:14:12;;;;;;;;;0.00;0.00;;;;;32.51;22.68;101681.97;5060954;28;45472;-79
2022/07/10 10:16:39;;;;;;;;;1.25;1.25;;;;;32.64;22.92;101686.25;5067322;28;45548;-79
2022/07/10 10:21:54;;;;;;;;;0.25;0.00;;;;;33.05;22.39;101698.63;5064663;28;45685;-79
2022/07/10 10:24:21;;;;;;;;;1.00;0.00;;;;;33.00;22.82;101698.25;5073724;28;45541;-79
2022/07/10 10:26:46;;;;;;;;;0.00;0.00;;;;;32.79;22.08;101700.34;5071605;27;45302;-78
2022/07/10 10:29:12;;;;;;;;;0.67;0.67;;;;;32.17;23.48;101695.28;5069187;27;45378;-79
2022/07/10 10:31:40;;;;;;;;;1.00;1.00;;;;;32.22;22.83;101682.00;5069214;28;46752;-79
2022/07/10 10:34:05;;;;;;;;;0.00;0.00;;;;;31.94;23.00;101695.53;5058719;28;45430;-79
2022/07/10 10:36:37;;;;;;;;;0.75;0.75;;;;;32.03;23.66;101689.19;5073887;28;45637;-79
2022/07/10 10:39:10;;;;;;;;;0.00;0.00;;;;;31.77;23.23;101682.63;5068899;27;45486;-79
2022/07/10 10:41:46;;;;;;;;;1.00;0.00;;;;;31.70;24.64;101668.66;5088525;27;46971;-79
2022/07/10 10:44:15;;;;;;;;;1.00;1.00;;;;;32.34;23.72;101682.72;5066745;28;45309;-78
2022/07/10 10:46:50;;;;;;;;;0.75;0.75;;;;;32.20;23.05;101682.16;5056356;28;45409;-79
2022/07/10 10:49:16;;;;;;;;;1.75;1.00;;;;;31.74;23.98;101682.91;5056854;28;45327;-78
2022/07/10 10:52:01;;;;;;;;;0.00;0.00;;;;;31.90;24.12;101677.69;5069100;28;45420;-77
2022/07/10 10:54:29;;;;;;;;;0.00;0.00;;;;;32.23;23.90;101668.22;5076373;27;45465;-77
2022/07/10 10:57:14;;;;;;;;;0.00;0.00;;;;;32.24;23.87;101671.81;5073997;28;45475;-82
2022/07/10 10:59:50;;;;;;;;;1.00;1.00;;;;;32.56;23.57;101673.31;5076242;27;45470;-81
2022/07/10 11:02:24;;;;;;;;;0.00;0.00;;;;;32.41;23.32;101664.72;5065160;28;46740;-79
2022/07/10 11:04:50;;;;;;;;;0.00;0.00;;;;;31.96;23.77;101655.28;5063611;28;45411;-82
2022/07/10 11:07:56;;;;;;;;;0.00;0.00;;;;;31.55;24.27;101649.06;5072651;28;45534;-81
2022/07/10 11:10:33;;;;;;;;;2.00;0.00;;;;;31.61;24.08;101651.28;5064994;28;45551;-81
2022/07/10 11:13:15;;;;;;;;;0.00;0.00;;;;;31.25;24.48;101645.44;5056327;28;45514;-79
2022/07/10 11:15:43;;;;;;;;;0.25;0.25;;;;;31.20;25.30;101642.25;5062867;28;45539;-82
2022/07/10 11:18:11;;;;;;;;;0.00;0.00;;;;;31.85;24.46;101639.88;5062568;27;45404;-81
2022/07/10 11:20:46;;;;;;;;;1.00;1.00;;;;;32.31;24.27;101636.53;5063816;28;45462;-83
2022/07/10 11:23:49;;;;;;;;;0.00;0.00;;;;;32.19;23.75;101644.03;5073465;27;45688;-80
2022/07/10 11:26:23;;;;;;;;;0.75;0.75;;;;;32.00;25.14;101628.53;5059767;28;45542;-80
2022/07/10 11:28:52;;;;;;;;;1.25;1.00;;;;;32.15;24.60;101626.22;5064504;27;45352;-79
2022/07/10 11:31:22;;;;;;;;;2.00;1.00;;;;;32.28;24.71;101621.31;5070457;28;45368;-81
2022/07/10 11:33:49;;;;;;;;;0.25;0.25;;;;;32.31;23.97;101625.59;5062624;28;45394;-82
2022/07/10 11:36:25;;;;;;;;;1.00;1.00;;;;;32.54;23.85;101615.16;5059848;28;45526;-82
2022/07/10 11:39:00;;;;;;;;;1.75;1.75;;;;;32.38;24.06;101597.50;5065107;28;45510;-80
2022/07/10 11:41:26;;;;;;;;;0.00;0.00;;;;;32.30;24.04;101619.28;5076210;28;45580;-80